Startpagina
METAR-TAF:

METAR-TAF

Vliegvelden :

Zinder, Niger

breedte: 13-47N, lengte: 008-59E, hoogte: 452 m

Actueel weer

Dit bericht is 32 minuten geleden gemaakt, om 03:00 UTC
Wind 8 kt uit het noordoosten
Temperatuur 20°C
Vochtigheid 23%
Druk 1016 hPa
Zicht: 6000 m

METAR: DRZR 190300Z 04008KT 6000 NSC 20/M02 Q1016

Tijdstip: 04:32 (03:32 UTC)

Verwachting

Dit bericht is 4 uur en het 32 minuten geleden gemaakt, om 23:00 UTC
Verwachting geldig van 19 om 00 UTC tot 19 om 24 UTC
Wind 5 kt uit het noordoosten
Zicht: 3500 m
verspreid stof
Tijdelijke
van 19 om 08 UTC tot 19 om 12 UTC
Wind 15 kt uit het oosten
Zicht: 2000 m
Stuifstof

TAF: DRZR 182300Z 1900/1924 04005KT 3500 DU NSC TEMPO 1908/1912 08015KT 2000 BLDU

Waarnemingen en weersverwachtingen van meer dan 4000 vliegvelden (METAR en TAF).

De beschikbare stations zijn de gele en rode punten op de kaart.

Ga met uw muis naar het station om de naam te zien.

Klik dan om waarnemingen en weersverwachtingen te zien.

kaart wijzigen: klik op de groene knoppen met een zwart kruis om in te zoomen, op de groene knop met een streepje om uit te zoomen of op de groene pijlen voor aangrenzende kaarten.


METAR-TAF: